createdAt,value
2022-10-18T00:00:06.682Z,26.38
2022-10-18T00:02:33.474Z,27.23
2022-10-18T00:05:00.301Z,24.92
2022-10-18T00:07:26.901Z,25.77
2022-10-18T00:09:54.227Z,25.85
2022-10-18T00:12:20.796Z,30.80
2022-10-18T00:14:50.816Z,33.80
2022-10-18T00:17:17.732Z,38.88
2022-10-18T00:19:44.522Z,35.20
2022-10-18T00:22:11.144Z,41.83
2022-10-18T00:24:37.994Z,46.33
2022-10-18T00:27:05.073Z,41.08
2022-10-18T00:29:31.666Z,45.25
2022-10-18T00:31:58.250Z,39.33
2022-10-18T00:34:24.945Z,35.70
2022-10-18T00:36:51.541Z,43.00
2022-10-18T00:39:21.406Z,38.35
2022-10-18T00:41:49.236Z,31.85
2022-10-18T00:44:15.791Z,24.42
2022-10-18T00:46:45.610Z,31.35
2022-10-18T00:49:22.541Z,40.42
2022-10-18T00:51:59.220Z,52.08
2022-10-18T00:54:28.241Z,58.40
2022-10-18T00:56:54.975Z,67.65
2022-10-18T00:59:22.501Z,57.85
2022-10-18T01:01:49.258Z,74.07
2022-10-18T01:04:17.795Z,61.17
2022-10-18T01:07:02.806Z,66.07
2022-10-18T01:09:29.401Z,62.80
2022-10-18T01:12:01.380Z,99.95
2022-10-18T01:14:46.734Z,111.03
2022-10-18T01:17:44.169Z,99.28
2022-10-18T01:20:36.082Z,93.30
2022-10-18T01:23:05.768Z,87.68
2022-10-18T01:25:41.459Z,73.18
2022-10-18T01:28:19.654Z,57.28
2022-10-18T01:30:54.791Z,66.28
2022-10-18T01:33:27.616Z,64.47
2022-10-18T01:36:14.976Z,49.28
2022-10-18T01:38:46.081Z,51.25
2022-10-18T01:41:15.843Z,42.22
2022-10-18T01:43:45.841Z,36.13
2022-10-18T01:46:18.755Z,28.77
2022-10-18T01:48:46.456Z,30.00
2022-10-18T01:51:13.144Z,25.85
2022-10-18T01:53:39.907Z,22.17
2022-10-18T01:56:06.780Z,20.23
2022-10-18T01:58:48.904Z,24.20
2022-10-18T02:01:24.960Z,20.45
2022-10-18T02:03:58.459Z,22.05
2022-10-18T02:06:34.919Z,25.65
2022-10-18T02:09:11.122Z,25.55
2022-10-18T02:11:40.223Z,23.13
2022-10-18T02:14:12.796Z,27.38
2022-10-18T02:16:45.229Z,28.67
2022-10-18T02:21:53.180Z,24.05
2022-10-18T02:24:23.858Z,27.83
2022-10-18T02:26:50.677Z,25.15
2022-10-18T02:29:17.791Z,30.08
2022-10-18T02:31:50.151Z,28.27
2022-10-18T02:34:28.019Z,29.17
2022-10-18T02:36:58.272Z,34.08
2022-10-18T02:39:42.886Z,28.25
2022-10-18T02:42:11.109Z,29.70
2022-10-18T02:44:38.659Z,26.55
2022-10-18T02:47:06.839Z,26.98
2022-10-18T02:49:33.747Z,29.23
2022-10-18T02:52:00.581Z,35.78
2022-10-18T02:54:27.304Z,35.80
2022-10-18T02:56:53.899Z,42.45
2022-10-18T02:59:20.620Z,34.28
2022-10-18T03:01:47.417Z,35.10
2022-10-18T03:04:14.183Z,39.03
2022-10-18T03:06:40.917Z,32.72
2022-10-18T03:09:07.789Z,32.95
2022-10-18T03:11:34.537Z,30.88
2022-10-18T03:14:01.266Z,30.60
2022-10-18T03:16:28.009Z,30.40
2022-10-18T03:18:54.654Z,33.13
2022-10-18T03:21:21.550Z,31.55
2022-10-18T03:23:48.128Z,22.88
2022-10-18T03:26:14.956Z,25.50
2022-10-18T03:28:42.739Z,36.90
2022-10-18T03:31:09.378Z,32.30
2022-10-18T03:33:35.963Z,96.97
2022-10-18T03:36:02.702Z,117.78
2022-10-18T03:38:29.256Z,112.90
2022-10-18T03:40:55.930Z,103.13
2022-10-18T03:43:23.079Z,103.30
2022-10-18T03:45:50.057Z,86.88
2022-10-18T03:48:16.673Z,64.30
2022-10-18T03:50:44.793Z,61.75
2022-10-18T03:53:11.531Z,85.95
2022-10-18T03:55:38.824Z,100.28
2022-10-18T03:58:05.860Z,117.47
2022-10-18T04:00:32.952Z,110.82
2022-10-18T04:02:59.530Z,102.55
2022-10-18T04:05:28.220Z,84.00
2022-10-18T04:07:55.081Z,90.28
2022-10-18T04:10:22.143Z,100.65
2022-10-18T04:12:49.348Z,87.30
2022-10-18T04:15:16.171Z,87.13
2022-10-18T04:17:42.846Z,76.95
2022-10-18T04:20:10.367Z,64.50
2022-10-18T04:22:37.127Z,64.25
2022-10-18T04:25:04.322Z,61.60
2022-10-18T04:27:31.507Z,45.58
2022-10-18T04:29:58.669Z,52.88
2022-10-18T04:32:27.854Z,72.80
2022-10-18T04:34:54.502Z,49.13
2022-10-18T04:37:21.100Z,42.05
2022-10-18T04:39:51.320Z,33.88
2022-10-18T04:42:20.562Z,24.90
2022-10-18T04:44:47.383Z,32.40
2022-10-18T04:47:14.038Z,34.13
2022-10-18T04:49:40.726Z,34.80
2022-10-18T04:52:07.734Z,38.08
2022-10-18T04:54:34.510Z,47.50
2022-10-18T04:57:01.229Z,35.53
2022-10-18T04:59:27.990Z,32.80
2022-10-18T05:01:54.845Z,39.10
2022-10-18T05:04:21.560Z,44.00
2022-10-18T05:06:48.433Z,26.65
2022-10-18T05:09:15.250Z,33.88
2022-10-18T05:11:41.928Z,44.47
2022-10-18T05:14:10.292Z,30.88
2022-10-18T05:16:37.239Z,24.85
2022-10-18T05:19:05.624Z,32.47
2022-10-18T05:21:32.887Z,28.50
2022-10-18T05:23:59.759Z,32.90
2022-10-18T05:26:26.408Z,39.75
2022-10-18T05:28:53.209Z,50.10
2022-10-18T05:31:20.004Z,51.25
2022-10-18T05:33:46.649Z,59.75
2022-10-18T05:36:13.533Z,49.97
2022-10-18T05:38:45.455Z,57.58
2022-10-18T05:41:13.003Z,48.58
2022-10-18T05:43:40.938Z,28.92
2022-10-18T05:46:13.561Z,31.83
2022-10-18T05:48:43.383Z,54.13
2022-10-18T05:51:10.000Z,33.50
2022-10-18T05:53:37.876Z,28.67
2022-10-18T05:56:05.858Z,41.33
2022-10-18T05:58:32.589Z,24.73
2022-10-18T06:01:02.887Z,29.42
2022-10-18T06:03:31.033Z,29.40
2022-10-18T06:06:09.540Z,15.85
2022-10-18T06:08:37.887Z,22.58
2022-10-18T06:11:16.770Z,16.55
2022-10-18T06:13:45.772Z,22.33
2022-10-18T06:16:14.376Z,20.77
2022-10-18T06:18:42.048Z,21.30
2022-10-18T06:21:09.531Z,24.90
2022-10-18T06:23:36.244Z,18.90
2022-10-18T06:26:06.638Z,25.05
2022-10-18T06:28:35.878Z,25.65
2022-10-18T06:31:03.058Z,35.15
2022-10-18T06:33:31.170Z,27.02
2022-10-18T06:36:02.514Z,31.90
2022-10-18T06:38:30.388Z,30.77
2022-10-18T06:40:58.238Z,22.70
2022-10-18T06:43:25.315Z,21.80
2022-10-18T06:45:52.692Z,20.23
2022-10-18T06:50:54.763Z,39.63
2022-10-18T06:53:21.582Z,27.58
2022-10-18T06:55:48.276Z,22.88
2022-10-18T06:58:15.284Z,21.55
2022-10-18T07:00:42.293Z,19.50
2022-10-18T07:03:08.992Z,26.23
2022-10-18T07:05:35.641Z,21.10
2022-10-18T07:08:02.325Z,26.48
2022-10-18T07:10:29.015Z,21.30
2022-10-18T07:13:08.031Z,19.20
2022-10-18T07:15:42.850Z,19.80
2022-10-18T07:18:09.462Z,19.15
2022-10-18T07:20:36.080Z,12.95
2022-10-18T07:23:02.748Z,20.52
2022-10-18T07:25:31.337Z,19.88
2022-10-18T07:27:57.968Z,16.27
2022-10-18T07:30:24.815Z,19.10
2022-10-18T07:32:52.176Z,14.68
2022-10-18T07:35:19.053Z,15.52
2022-10-18T07:37:45.677Z,19.30
2022-10-18T07:40:12.699Z,17.63
2022-10-18T07:42:39.302Z,18.38
2022-10-18T07:45:06.187Z,15.60
2022-10-18T07:47:35.211Z,19.02
2022-10-18T07:50:02.226Z,16.23
2022-10-18T07:52:29.033Z,15.57
2022-10-18T07:54:55.629Z,17.35
2022-10-18T07:57:23.442Z,15.38
2022-10-18T07:59:56.174Z,18.65
2022-10-18T08:02:24.116Z,17.25
2022-10-18T08:04:50.927Z,16.85
2022-10-18T08:07:17.508Z,19.67
2022-10-18T08:09:44.183Z,26.60
2022-10-18T08:12:11.145Z,17.98
2022-10-18T08:14:37.755Z,18.27
2022-10-18T08:17:04.316Z,22.92
2022-10-18T08:19:30.971Z,20.23
2022-10-18T08:21:57.657Z,20.05
2022-10-18T08:24:24.349Z,37.58
2022-10-18T08:26:51.220Z,24.88
2022-10-18T08:29:23.370Z,18.20
2022-10-18T08:31:52.532Z,17.83
2022-10-18T08:34:20.001Z,20.60
2022-10-18T08:36:47.127Z,21.55
2022-10-18T08:39:13.816Z,25.10
2022-10-18T08:42:00.025Z,18.67
2022-10-18T08:44:33.850Z,19.23
2022-10-18T08:47:07.588Z,20.33
2022-10-18T08:49:47.322Z,25.77
2022-10-18T08:52:28.366Z,18.17
2022-10-18T08:55:04.590Z,20.77
2022-10-18T08:57:32.045Z,21.73
2022-10-18T08:59:59.091Z,22.73
2022-10-18T09:02:47.339Z,19.10
2022-10-18T09:05:28.293Z,15.07
2022-10-18T09:08:11.526Z,22.00
2022-10-18T09:10:41.338Z,22.30
2022-10-18T09:13:13.088Z,19.88
2022-10-18T09:16:15.815Z,20.05
2022-10-18T09:21:15.139Z,18.13
2022-10-18T09:23:48.304Z,28.15
2022-10-18T09:26:20.947Z,19.20
2022-10-18T09:29:38.640Z,23.33
2022-10-18T09:32:27.879Z,18.85
2022-10-18T09:35:06.090Z,24.58
2022-10-18T09:37:34.653Z,26.23
2022-10-18T09:40:19.401Z,26.10
2022-10-18T09:42:55.621Z,21.77
2022-10-18T09:45:37.836Z,26.02
2022-10-18T09:50:48.924Z,16.58
2022-10-18T09:53:45.663Z,26.00
2022-10-18T09:56:17.670Z,23.02
2022-10-18T10:01:16.565Z,21.02
2022-10-18T10:03:43.290Z,31.63
2022-10-18T10:06:12.754Z,22.27
2022-10-18T10:08:44.016Z,21.20
2022-10-18T10:11:47.284Z,21.10
2022-10-18T10:14:26.542Z,25.17
2022-10-18T10:17:05.970Z,26.10
2022-10-18T10:19:52.260Z,21.70
2022-10-18T10:22:27.907Z,19.48
2022-10-18T10:24:55.364Z,16.50
2022-10-18T10:27:27.783Z,22.50
2022-10-18T10:29:57.663Z,15.50
2022-10-18T10:32:29.195Z,16.83
2022-10-18T10:34:56.455Z,15.00
2022-10-18T10:37:23.155Z,17.60
2022-10-18T10:40:17.708Z,20.55
2022-10-18T10:43:36.397Z,13.32
2022-10-18T10:46:06.640Z,23.48
2022-10-18T10:49:08.479Z,19.20
2022-10-18T10:51:43.824Z,25.15
2022-10-18T10:54:20.506Z,13.98
2022-10-18T10:57:12.874Z,15.90
2022-10-18T11:02:18.173Z,21.60
2022-10-18T11:04:47.556Z,15.65
2022-10-18T11:07:27.848Z,10.50
2022-10-18T11:10:00.215Z,11.90
2022-10-18T11:12:50.707Z,13.10
2022-10-18T11:15:19.570Z,15.13
2022-10-18T11:17:57.723Z,14.25
2022-10-18T11:20:45.499Z,10.50
2022-10-18T11:23:16.842Z,6.20
2022-10-18T11:26:09.195Z,6.60
2022-10-18T11:31:28.380Z,6.65
2022-10-18T11:34:10.558Z,4.95
2022-10-18T11:36:56.568Z,9.07
2022-10-18T11:39:41.355Z,4.32
2022-10-18T11:42:19.374Z,2.63
2022-10-18T11:45:15.124Z,3.88
2022-10-18T11:48:15.643Z,12.68
2022-10-18T11:50:51.788Z,3.30
2022-10-18T11:53:50.959Z,3.47
2022-10-18T11:56:48.399Z,7.50
2022-10-18T11:59:38.634Z,8.57
2022-10-18T12:02:20.281Z,2.28
2022-10-18T12:04:58.479Z,5.10
2022-10-18T12:07:56.944Z,5.28
2022-10-18T12:10:37.745Z,2.53
2022-10-18T12:13:18.761Z,2.75
2022-10-18T12:15:46.845Z,8.82
2022-10-18T12:18:21.702Z,3.90
2022-10-18T12:20:55.037Z,2.58
2022-10-18T12:23:45.124Z,2.15
2022-10-18T12:26:12.247Z,5.88
2022-10-18T12:29:03.590Z,1.75
2022-10-18T12:31:45.611Z,5.83
2022-10-18T12:34:30.302Z,4.78
2022-10-18T12:37:08.826Z,8.27
2022-10-18T12:39:43.617Z,2.97
2022-10-18T12:42:20.681Z,2.00
2022-10-18T12:44:47.926Z,9.13
2022-10-18T12:47:25.593Z,2.78
2022-10-18T12:50:05.396Z,5.15
2022-10-18T12:52:37.303Z,6.25
2022-10-18T12:57:54.496Z,2.10
2022-10-18T13:00:30.578Z,3.00
2022-10-18T13:03:09.373Z,6.38
2022-10-18T13:05:53.398Z,4.50
2022-10-18T13:08:38.412Z,10.43
2022-10-18T13:11:10.942Z,3.22
2022-10-18T13:14:10.904Z,3.03
2022-10-18T13:16:47.741Z,2.63
2022-10-18T13:19:32.229Z,6.78
2022-10-18T13:22:34.298Z,5.22
2022-10-18T13:25:21.437Z,4.68
2022-10-18T13:27:53.170Z,1.75
2022-10-18T13:30:32.363Z,4.88
2022-10-18T13:32:58.914Z,3.97
2022-10-18T13:35:52.789Z,2.35
2022-10-18T13:38:34.598Z,4.95
2022-10-18T13:41:04.001Z,12.70
2022-10-18T13:43:53.089Z,2.42
2022-10-18T13:46:45.624Z,1.15
2022-10-18T13:49:40.470Z,4.22
2022-10-18T13:52:32.381Z,3.65
2022-10-18T13:55:32.995Z,1.83
2022-10-18T13:58:48.927Z,2.45
2022-10-18T14:01:53.288Z,5.68
2022-10-18T14:04:42.577Z,2.50
2022-10-18T14:07:11.734Z,2.65
2022-10-18T14:10:05.000Z,4.20
2022-10-18T14:12:43.668Z,3.65
2022-10-18T14:15:21.208Z,7.50
2022-10-18T14:18:04.056Z,2.38
2022-10-18T14:20:49.359Z,19.10
2022-10-18T14:23:35.190Z,1.85
2022-10-18T14:26:12.301Z,4.68
2022-10-18T14:28:58.558Z,3.67
2022-10-18T14:31:25.972Z,6.47
2022-10-18T14:33:57.614Z,2.33
2022-10-18T14:36:27.992Z,7.22
2022-10-18T14:38:56.190Z,12.75
2022-10-18T14:41:27.463Z,2.58
2022-10-18T14:44:18.669Z,3.63
2022-10-18T14:46:51.502Z,4.90
2022-10-18T14:49:20.446Z,6.38
2022-10-18T14:51:51.605Z,11.20
2022-10-18T14:54:32.423Z,8.38
2022-10-18T14:57:01.728Z,3.63
2022-10-18T14:59:35.126Z,5.18
2022-10-18T15:02:15.226Z,7.65
2022-10-18T15:04:45.460Z,6.53
2022-10-18T15:07:17.895Z,7.30
2022-10-18T15:09:45.962Z,12.63
2022-10-18T15:12:16.233Z,7.97
2022-10-18T15:14:44.247Z,11.98
2022-10-18T15:17:26.586Z,13.82
2022-10-18T15:20:01.852Z,15.15
2022-10-18T15:22:33.565Z,17.05
2022-10-18T15:25:11.613Z,7.35
2022-10-18T15:27:40.058Z,8.63
2022-10-18T15:30:11.425Z,9.70
2022-10-18T15:32:40.618Z,4.15
2022-10-18T15:35:26.119Z,5.30
2022-10-18T15:37:57.332Z,12.38
2022-10-18T15:40:24.626Z,3.17
2022-10-18T15:43:05.952Z,16.98
2022-10-18T15:48:32.877Z,11.80
2022-10-18T15:51:04.804Z,12.40
2022-10-18T15:53:48.596Z,12.57
2022-10-18T15:56:27.911Z,14.45
2022-10-18T15:59:00.208Z,12.65
2022-10-18T16:01:35.691Z,10.40
2022-10-18T16:04:08.974Z,14.50
2022-10-18T16:06:38.816Z,16.58
2022-10-18T16:09:05.938Z,14.73
2022-10-18T16:11:33.284Z,11.75
2022-10-18T16:14:00.635Z,16.75
2022-10-18T16:16:29.018Z,14.60
2022-10-18T16:18:56.566Z,15.23
2022-10-18T16:21:32.842Z,26.45
2022-10-18T16:24:00.117Z,9.23
2022-10-18T16:26:27.281Z,15.23
2022-10-18T16:28:55.130Z,16.08
2022-10-18T16:31:27.577Z,22.77
2022-10-18T16:33:55.507Z,25.38
2022-10-18T16:36:29.839Z,19.23
2022-10-18T16:38:57.932Z,18.75
2022-10-18T16:41:25.024Z,17.83
2022-10-18T16:43:51.706Z,21.23
2022-10-18T16:46:30.731Z,17.85
2022-10-18T16:48:57.781Z,24.02
2022-10-18T16:51:25.269Z,27.48
2022-10-18T16:53:58.115Z,22.00
2022-10-18T16:56:28.368Z,29.58
2022-10-18T16:58:55.169Z,20.23
2022-10-18T17:01:23.954Z,17.48
2022-10-18T17:03:52.276Z,27.10
2022-10-18T17:06:23.705Z,15.13
2022-10-18T17:08:50.839Z,12.25
2022-10-18T17:11:20.185Z,8.73
2022-10-18T17:13:47.170Z,11.38
2022-10-18T17:19:03.214Z,16.05
2022-10-18T17:21:30.661Z,15.77
2022-10-18T17:24:04.556Z,13.35
2022-10-18T17:26:31.575Z,16.80
2022-10-18T17:29:01.335Z,17.50
2022-10-18T17:31:29.742Z,19.08
2022-10-18T17:33:58.405Z,21.92
2022-10-18T17:36:25.309Z,27.40
2022-10-18T17:38:53.610Z,31.98
2022-10-18T17:41:20.814Z,35.78
2022-10-18T17:43:48.674Z,26.98
2022-10-18T17:46:16.468Z,18.77
2022-10-18T17:48:43.540Z,19.02
2022-10-18T17:51:12.622Z,10.32
2022-10-18T17:53:39.357Z,10.90
2022-10-18T17:56:09.949Z,11.55
2022-10-18T17:58:36.693Z,6.63
2022-10-18T18:01:21.039Z,13.15
2022-10-18T18:03:50.891Z,11.68
2022-10-18T18:06:20.376Z,14.05
2022-10-18T18:08:48.244Z,15.55
2022-10-18T18:11:16.180Z,14.35
2022-10-18T18:13:43.228Z,16.73
2022-10-18T18:16:15.821Z,15.05
2022-10-18T18:18:43.287Z,17.23
2022-10-18T18:21:10.886Z,15.02
2022-10-18T18:23:40.125Z,13.05
2022-10-18T18:26:07.173Z,18.23
2022-10-18T18:28:36.178Z,18.58
2022-10-18T18:31:08.132Z,13.18
2022-10-18T18:33:36.550Z,13.85
2022-10-18T18:36:04.985Z,28.40
2022-10-18T18:38:32.539Z,20.13
2022-10-18T18:41:12.945Z,25.52
2022-10-18T18:43:42.648Z,16.38
2022-10-18T18:46:10.467Z,22.02
2022-10-18T18:48:37.313Z,24.17
2022-10-18T18:51:06.297Z,30.83
2022-10-18T18:53:33.107Z,28.60
2022-10-18T18:56:07.728Z,35.83
2022-10-18T18:58:37.988Z,26.55
2022-10-18T19:01:17.324Z,30.27
2022-10-18T19:03:48.750Z,40.30
2022-10-18T19:06:35.551Z,36.97
2022-10-18T19:09:04.946Z,40.53
2022-10-18T19:11:35.711Z,35.67
2022-10-18T19:14:04.114Z,44.47
2022-10-18T19:16:40.771Z,33.50
2022-10-18T19:19:12.139Z,40.78
2022-10-18T19:21:46.623Z,38.10
2022-10-18T19:24:13.404Z,64.05
2022-10-18T19:26:47.482Z,61.28
2022-10-18T19:29:16.989Z,63.92
2022-10-18T19:31:44.867Z,56.67
2022-10-18T19:34:13.961Z,60.28
2022-10-18T19:36:42.497Z,58.72
2022-10-18T19:39:15.081Z,62.28
2022-10-18T19:41:42.162Z,59.42
2022-10-18T19:44:11.895Z,55.88
2022-10-18T19:46:38.653Z,50.13
2022-10-18T19:49:05.350Z,54.63
2022-10-18T19:51:32.049Z,47.63
2022-10-18T19:53:58.938Z,51.85
2022-10-18T19:56:26.931Z,40.13
2022-10-18T19:58:54.296Z,43.20
2022-10-18T20:01:21.204Z,28.10
2022-10-18T20:03:49.569Z,55.22
2022-10-18T20:06:16.718Z,35.85
2022-10-18T20:08:43.728Z,37.90
2022-10-18T20:11:16.129Z,37.80
2022-10-18T20:13:43.144Z,46.90
2022-10-18T20:16:12.695Z,48.40
2022-10-18T20:18:39.572Z,47.83
2022-10-18T20:21:10.632Z,51.40
2022-10-18T20:23:38.924Z,46.13
2022-10-18T20:26:18.259Z,48.47
2022-10-18T20:28:56.971Z,37.30
2022-10-18T20:31:29.264Z,34.33
2022-10-18T20:36:25.530Z,49.25
2022-10-18T20:38:54.367Z,52.17
2022-10-18T20:41:32.594Z,43.05
2022-10-18T20:44:01.782Z,41.97
2022-10-18T20:46:33.670Z,48.42
2022-10-18T20:49:01.000Z,43.30
2022-10-18T20:51:28.254Z,45.30
2022-10-18T20:53:55.276Z,45.33
2022-10-18T20:56:25.288Z,48.47
2022-10-18T20:58:53.995Z,45.33
2022-10-18T21:01:23.123Z,50.72
2022-10-18T21:03:51.811Z,49.45
2022-10-18T21:06:27.528Z,49.47
2022-10-18T21:08:58.991Z,41.65
2022-10-18T21:11:27.809Z,40.23
2022-10-18T21:13:57.622Z,42.63
2022-10-18T21:16:24.621Z,39.05
2022-10-18T21:18:51.284Z,40.00
2022-10-18T21:21:24.057Z,39.47
2022-10-18T21:23:52.113Z,42.65
2022-10-18T21:26:24.100Z,45.17
2022-10-18T21:28:52.291Z,47.75
2022-10-18T21:31:22.265Z,29.30
2022-10-18T21:33:56.346Z,32.92
2022-10-18T21:36:23.862Z,33.78
2022-10-18T21:38:51.251Z,31.48
2022-10-18T21:41:19.763Z,30.27
2022-10-18T21:43:51.317Z,27.40
2022-10-18T21:46:20.427Z,27.52
2022-10-18T21:48:49.789Z,24.15
2022-10-18T21:51:17.897Z,20.90
2022-10-18T21:53:46.708Z,25.73
2022-10-18T21:56:22.109Z,24.65
2022-10-18T21:58:49.040Z,25.17
2022-10-18T22:01:18.762Z,19.42
2022-10-18T22:03:47.700Z,15.77
2022-10-18T22:06:16.705Z,18.20
2022-10-18T22:08:50.289Z,26.63
2022-10-18T22:11:18.675Z,18.30
2022-10-18T22:13:46.548Z,18.17
2022-10-18T22:16:15.004Z,19.42
2022-10-18T22:18:42.645Z,17.35
2022-10-18T22:21:11.154Z,16.98
2022-10-18T22:23:43.260Z,25.67
2022-10-18T22:26:13.098Z,26.98
2022-10-18T22:28:41.370Z,25.38
2022-10-18T22:31:15.629Z,32.50
2022-10-18T22:33:42.334Z,27.20
2022-10-18T22:36:09.261Z,23.27
2022-10-18T22:38:36.518Z,28.90
2022-10-18T22:41:07.907Z,34.88
2022-10-18T22:43:36.341Z,25.67
2022-10-18T22:46:08.791Z,21.67
2022-10-18T22:48:36.095Z,27.73
2022-10-18T22:51:03.188Z,28.58
2022-10-18T22:53:30.328Z,17.10
2022-10-18T22:55:57.386Z,25.10
2022-10-18T22:58:24.405Z,24.20
2022-10-18T23:00:51.540Z,31.42
2022-10-18T23:03:19.303Z,31.48
2022-10-18T23:05:47.025Z,34.08
2022-10-18T23:08:14.467Z,24.23
2022-10-18T23:10:42.304Z,20.13
2022-10-18T23:13:10.874Z,22.95
2022-10-18T23:15:39.138Z,33.15
2022-10-18T23:18:06.294Z,33.30
2022-10-18T23:20:33.109Z,21.50
2022-10-18T23:22:59.757Z,30.98
2022-10-18T23:25:27.263Z,21.80
2022-10-18T23:27:54.458Z,25.08
2022-10-18T23:30:21.218Z,23.33
2022-10-18T23:32:48.040Z,29.02
2022-10-18T23:35:14.781Z,27.17
2022-10-18T23:37:41.436Z,28.95
2022-10-18T23:40:09.246Z,27.98
2022-10-18T23:42:35.994Z,24.30
2022-10-18T23:45:02.759Z,33.10
2022-10-18T23:47:29.699Z,29.35
2022-10-18T23:49:58.913Z,23.02
2022-10-18T23:52:25.548Z,32.20
2022-10-18T23:54:52.209Z,29.55
2022-10-18T23:57:18.847Z,39.95
2022-10-18T23:59:45.715Z,32.80
